Etusivu
METAR-TAF:

METAR-TAF

Lentoasemat :

Shell Mera, Ecuador

Leveyspiiri: 01-30-19S, Pituuspiiri: 078-03-46W, korkeus merenpinnasta: 1056 m

Tämänhetkinen sää

Tämä raportti tehtiin 2 tuntia ja 48 minuuttia sitten, kello 23.00 UTC
tyyntä
Lämpötila 23°C
Kosteus 83%
Ilmanpaine 1013 hPa
Näkyvyys 10 km tai enemmän
Hajanaisia pilviä 2600 ft:n korkeudessa
Hajonneita pilviä 10000 ft:n korkeudessa

METAR: SESM 232300Z 00000KT 9999 SCT026 BKN100 23/20 Q1013 RMK A2991

Aika: 20:48 (01:48 UTC)


TAF: puuttuu

Säähavainnot ja -ennusteet yli 4000 lentoasemalta (METAR- ja TAF-raportit).

Käytössä olevat sääasemat on merkitty karttaan keltaisilla ja punaisilla pisteillä.

Aseta hiiri pisteen päälle nähdäksesi sääaseman nimen.

Klikkaa sitten nähdäksesi säähavainnot ja -ennusteet.

Kartan vaihtaminen: klikkaa mustalla rastilla varustettuja vihreitä pisteitä, niin voit zoomata sisään; viivalla varustettua vihreää pistettä, niin voit zoomata ulos tai vihreitä nuolia, niin pääset viereisille kartoille.


METAR-TAF: